createdAt,value
2018-12-19T00:02:30.857Z,10.50
2018-12-19T00:05:37.116Z,8.05
2018-12-19T00:08:43.307Z,8.65
2018-12-19T00:11:49.554Z,8.08
2018-12-19T00:14:55.876Z,7.58
2018-12-19T00:18:02.214Z,9.05
2018-12-19T00:21:08.469Z,8.83
2018-12-19T00:24:14.681Z,9.83
2018-12-19T00:27:21.395Z,11.57
2018-12-19T00:30:27.647Z,10.75
2018-12-19T00:33:34.235Z,9.95
2018-12-19T00:36:40.610Z,10.20
2018-12-19T00:39:46.837Z,8.48
2018-12-19T00:42:53.083Z,10.00
2018-12-19T00:45:59.323Z,7.85
2018-12-19T00:49:05.491Z,10.85
2018-12-19T00:52:11.838Z,9.35
2018-12-19T00:55:18.026Z,8.70
2018-12-19T00:58:24.273Z,10.10
2018-12-19T01:01:30.511Z,6.87
2018-12-19T01:04:36.780Z,9.00
2018-12-19T01:07:43.097Z,8.90
2018-12-19T01:10:49.333Z,9.15
2018-12-19T01:13:55.591Z,6.15
2018-12-19T01:17:01.808Z,8.78
2018-12-19T01:20:08.077Z,5.90
2018-12-19T01:23:14.333Z,7.62
2018-12-19T01:26:21.579Z,6.45
2018-12-19T01:29:27.972Z,6.62
2018-12-19T01:32:34.220Z,6.58
2018-12-19T01:35:40.885Z,5.42
2018-12-19T01:38:47.373Z,5.95
2018-12-19T01:41:53.642Z,5.03
2018-12-19T01:44:59.859Z,7.12
2018-12-19T01:48:06.349Z,5.97
2018-12-19T01:51:12.511Z,6.55
2018-12-19T01:54:19.576Z,7.47
2018-12-19T01:57:25.726Z,6.40
2018-12-19T02:00:32.573Z,6.65
2018-12-19T02:03:38.799Z,5.45
2018-12-19T02:06:45.181Z,5.70
2018-12-19T02:09:51.648Z,5.55
2018-12-19T02:12:58.037Z,7.12
2018-12-19T02:16:04.302Z,5.83
2018-12-19T02:19:10.570Z,5.55
2018-12-19T02:22:16.738Z,5.67
2018-12-19T02:25:23.088Z,6.60
2018-12-19T02:28:29.477Z,6.28
2018-12-19T02:31:35.925Z,5.70
2018-12-19T02:34:42.881Z,4.87
2018-12-19T02:37:49.017Z,4.97
2018-12-19T02:40:55.277Z,4.58
2018-12-19T02:44:01.569Z,5.83
2018-12-19T02:47:07.845Z,4.97
2018-12-19T02:50:15.307Z,5.78
2018-12-19T02:53:21.465Z,4.95
2018-12-19T02:56:27.737Z,5.80
2018-12-19T02:59:33.875Z,7.35
2018-12-19T03:02:40.163Z,9.45
2018-12-19T03:05:46.349Z,3.90
2018-12-19T03:08:52.558Z,4.90
2018-12-19T03:11:58.747Z,5.15
2018-12-19T03:15:05.435Z,4.55
2018-12-19T03:18:11.590Z,3.92
2018-12-19T03:21:18.404Z,5.15
2018-12-19T03:24:24.597Z,4.87
2018-12-19T03:27:30.858Z,4.87
2018-12-19T03:30:37.062Z,4.78
2018-12-19T03:33:44.606Z,4.80
2018-12-19T03:36:50.877Z,7.35
2018-12-19T03:39:57.200Z,6.92
2018-12-19T03:43:03.511Z,5.97
2018-12-19T03:46:10.013Z,5.22
2018-12-19T03:49:17.370Z,5.72
2018-12-19T03:52:23.804Z,5.42
2018-12-19T03:55:30.222Z,6.03
2018-12-19T03:58:36.404Z,4.97
2018-12-19T04:01:42.594Z,4.65
2018-12-19T04:04:49.888Z,5.28
2018-12-19T04:07:56.161Z,4.83
2018-12-19T04:11:02.509Z,5.08
2018-12-19T04:14:08.672Z,6.12
2018-12-19T04:17:14.831Z,5.83
2018-12-19T04:20:21.680Z,5.53
2018-12-19T04:23:27.870Z,6.07
2018-12-19T04:26:34.147Z,7.40
2018-12-19T04:29:40.715Z,6.28
2018-12-19T04:32:47.230Z,5.10
2018-12-19T04:35:53.823Z,5.63
2018-12-19T04:39:00.178Z,5.67
2018-12-19T04:42:06.431Z,5.45
2018-12-19T04:45:12.655Z,6.17
2018-12-19T04:48:19.552Z,5.78
2018-12-19T04:51:26.024Z,6.92
2018-12-19T04:54:32.257Z,6.40
2018-12-19T04:57:38.453Z,6.75
2018-12-19T05:00:44.678Z,6.12
2018-12-19T05:03:51.078Z,6.70
2018-12-19T05:06:57.355Z,6.20
2018-12-19T05:10:03.943Z,5.53
2018-12-19T05:13:10.076Z,6.07
2018-12-19T05:16:16.239Z,5.77
2018-12-19T05:19:22.913Z,5.33
2018-12-19T05:22:29.219Z,6.80
2018-12-19T05:25:35.490Z,6.25
2018-12-19T05:28:41.733Z,6.07
2018-12-19T05:31:47.898Z,6.07
2018-12-19T05:34:55.365Z,5.70
2018-12-19T05:38:01.538Z,5.23
2018-12-19T05:41:07.692Z,6.47
2018-12-19T05:44:14.441Z,6.67
2018-12-19T05:47:21.007Z,5.83
2018-12-19T05:50:29.230Z,5.97
2018-12-19T05:53:35.438Z,6.63
2018-12-19T05:56:41.593Z,5.93
2018-12-19T05:59:48.511Z,6.33
2018-12-19T06:02:55.000Z,7.30
2018-12-19T06:06:01.199Z,7.10
2018-12-19T06:09:08.065Z,7.07
2018-12-19T06:12:14.253Z,6.83
2018-12-19T06:15:20.818Z,8.70
2018-12-19T06:18:27.033Z,6.50
2018-12-19T06:21:33.242Z,8.00
2018-12-19T06:24:39.410Z,7.33
2018-12-19T06:27:45.595Z,7.33
2018-12-19T06:30:51.741Z,8.07
2018-12-19T06:33:59.361Z,6.70
2018-12-19T06:37:05.833Z,7.33
2018-12-19T06:40:12.083Z,8.73
2018-12-19T06:43:18.204Z,6.17
2018-12-19T06:46:24.442Z,7.70
2018-12-19T06:49:30.729Z,7.77
2018-12-19T06:52:36.907Z,6.90
2018-12-19T06:55:43.079Z,7.23
2018-12-19T06:58:49.247Z,8.40
2018-12-19T07:01:55.450Z,6.00
2018-12-19T07:05:01.633Z,7.37
2018-12-19T07:08:07.956Z,8.93
2018-12-19T07:11:14.202Z,7.60
2018-12-19T07:14:21.098Z,7.83
2018-12-19T07:17:27.221Z,7.10
2018-12-19T07:20:33.267Z,6.73
2018-12-19T07:23:40.297Z,8.13
2018-12-19T07:26:46.810Z,7.60
2018-12-19T07:29:54.045Z,7.20
2018-12-19T07:33:00.219Z,7.20
2018-12-19T07:36:06.511Z,7.77
2018-12-19T07:39:13.007Z,6.90
2018-12-19T07:42:19.265Z,7.83
2018-12-19T07:45:26.401Z,8.17
2018-12-19T07:48:33.289Z,7.30
2018-12-19T07:51:40.190Z,8.07
2018-12-19T07:54:46.280Z,7.30
2018-12-19T07:57:52.852Z,8.60
2018-12-19T08:00:59.406Z,8.17
2018-12-19T08:04:06.033Z,7.87
2018-12-19T08:07:12.636Z,6.70
2018-12-19T08:10:18.903Z,7.77
2018-12-19T08:13:25.386Z,7.57
2018-12-19T08:16:31.763Z,8.50
2018-12-19T08:19:38.031Z,7.43
2018-12-19T08:22:44.305Z,8.67
2018-12-19T08:25:50.409Z,7.33
2018-12-19T08:28:56.619Z,8.73
2018-12-19T08:32:04.018Z,9.10
2018-12-19T08:35:10.344Z,8.73
2018-12-19T08:38:16.433Z,8.93
2018-12-19T08:41:22.795Z,10.37
2018-12-19T08:44:29.462Z,10.20
2018-12-19T08:47:36.298Z,9.50
2018-12-19T08:50:42.534Z,10.57
2018-12-19T08:53:48.769Z,10.60
2018-12-19T08:56:54.966Z,12.23
2018-12-19T09:00:01.235Z,11.97
2018-12-19T09:03:07.671Z,11.33
2018-12-19T09:06:14.054Z,10.13
2018-12-19T09:09:20.372Z,11.53
2018-12-19T09:12:26.807Z,9.90
2018-12-19T09:15:38.405Z,9.97
2018-12-19T09:18:44.802Z,10.33
2018-12-19T09:21:51.126Z,10.87
2018-12-19T09:24:57.584Z,10.07
2018-12-19T09:28:04.708Z,10.67
2018-12-19T09:31:11.710Z,9.83
2018-12-19T09:34:18.025Z,8.87
2018-12-19T09:37:24.364Z,10.80
2018-12-19T09:40:30.849Z,9.77
2018-12-19T09:43:37.224Z,10.77
2018-12-19T09:46:43.915Z,9.73
2018-12-19T09:49:50.311Z,9.17
2018-12-19T09:52:56.844Z,9.80
2018-12-19T09:56:03.078Z,8.93
2018-12-19T09:59:09.395Z,8.67
2018-12-19T10:02:16.169Z,9.63
2018-12-19T10:05:22.774Z,10.70
2018-12-19T10:08:29.330Z,9.83
2018-12-19T10:11:35.654Z,9.63
2018-12-19T10:14:41.963Z,10.10
2018-12-19T10:17:49.062Z,8.97
2018-12-19T10:20:55.240Z,10.33
2018-12-19T10:24:01.684Z,8.80
2018-12-19T10:27:07.916Z,9.67
2018-12-19T10:30:15.245Z,9.43
2018-12-19T10:33:22.543Z,11.47
2018-12-19T10:36:34.122Z,9.47
2018-12-19T10:39:40.332Z,10.00
2018-12-19T10:42:46.586Z,10.07
2018-12-19T10:45:53.639Z,8.67
2018-12-19T10:48:59.824Z,8.60
2018-12-19T10:52:05.957Z,8.97
2018-12-19T10:55:12.137Z,9.70
2018-12-19T10:58:18.278Z,9.30
2018-12-19T11:01:24.498Z,10.03
2018-12-19T11:04:31.240Z,10.03
2018-12-19T11:07:37.442Z,9.70
2018-12-19T11:10:45.119Z,10.40
2018-12-19T11:13:51.608Z,8.47
2018-12-19T11:16:58.146Z,8.87
2018-12-19T11:20:05.013Z,9.30
2018-12-19T11:23:11.400Z,10.13
2018-12-19T11:26:17.762Z,9.23
2018-12-19T11:29:24.245Z,10.33
2018-12-19T11:32:30.786Z,9.37
2018-12-19T11:35:37.016Z,11.23
2018-12-19T11:38:43.311Z,10.03
2018-12-19T11:41:49.801Z,10.57
2018-12-19T11:44:56.904Z,9.20
2018-12-19T11:48:04.084Z,9.73
2018-12-19T11:51:10.444Z,9.27
2018-12-19T11:54:16.705Z,9.47
2018-12-19T11:57:22.955Z,9.40
2018-12-19T12:00:29.422Z,9.77
2018-12-19T12:03:35.750Z,9.37
2018-12-19T12:06:41.996Z,10.20
2018-12-19T12:09:48.648Z,8.90
2018-12-19T12:12:54.975Z,9.07
2018-12-19T12:16:01.255Z,9.33
2018-12-19T12:19:08.181Z,9.80
2018-12-19T12:22:14.425Z,10.10
2018-12-19T12:25:20.657Z,9.20
2018-12-19T12:28:26.895Z,10.07
2018-12-19T12:31:33.096Z,9.17
2018-12-19T12:34:39.237Z,9.50
2018-12-19T12:37:45.480Z,9.00
2018-12-19T12:40:51.648Z,9.27
2018-12-19T12:43:57.843Z,9.30
2018-12-19T12:47:04.216Z,10.83
2018-12-19T12:50:10.454Z,10.00
2018-12-19T12:53:16.753Z,10.20
2018-12-19T12:56:23.072Z,10.93
2018-12-19T12:59:29.370Z,10.43
2018-12-19T13:02:35.821Z,10.83
2018-12-19T13:05:42.049Z,9.73
2018-12-19T13:08:48.653Z,9.63
2018-12-19T13:11:58.782Z,10.53
2018-12-19T13:15:03.399Z,10.17
2018-12-19T13:18:09.723Z,10.27
2018-12-19T13:21:16.101Z,9.50
2018-12-19T13:24:22.601Z,11.67
2018-12-19T13:27:29.114Z,10.63
2018-12-19T13:30:35.244Z,10.07
2018-12-19T13:33:41.618Z,11.33
2018-12-19T13:36:47.874Z,9.87
2018-12-19T13:39:54.271Z,9.80
2018-12-19T13:43:00.571Z,10.43
2018-12-19T13:46:06.815Z,11.40
2018-12-19T13:49:12.998Z,10.43
2018-12-19T13:52:19.158Z,11.30
2018-12-19T13:55:25.356Z,9.90
2018-12-19T13:58:31.617Z,10.73
2018-12-19T14:01:37.955Z,10.80
2018-12-19T14:04:45.515Z,12.00
2018-12-19T14:07:52.459Z,9.13
2018-12-19T14:10:59.000Z,11.63
2018-12-19T14:14:05.305Z,10.63
2018-12-19T14:17:11.698Z,12.43
2018-12-19T14:20:17.873Z,10.43
2018-12-19T14:23:24.071Z,11.07
2018-12-19T14:26:30.525Z,9.23
2018-12-19T14:29:36.918Z,10.93
2018-12-19T14:32:43.255Z,10.20
2018-12-19T14:35:49.447Z,10.63
2018-12-19T14:38:55.666Z,9.50
2018-12-19T14:42:02.761Z,9.30
2018-12-19T14:45:09.915Z,10.13
2018-12-19T14:48:16.295Z,9.40
2018-12-19T14:51:22.646Z,9.07
2018-12-19T14:54:29.265Z,9.30
2018-12-19T14:57:36.782Z,9.77
2018-12-19T15:00:43.170Z,10.17
2018-12-19T15:03:49.508Z,9.70
2018-12-19T15:06:55.799Z,9.13
2018-12-19T15:10:02.113Z,8.47
2018-12-19T15:13:08.390Z,9.63
2018-12-19T15:16:16.642Z,9.03
2018-12-19T15:19:22.903Z,9.37
2018-12-19T15:22:29.649Z,9.20
2018-12-19T15:25:35.960Z,8.70
2018-12-19T15:28:42.293Z,9.07
2018-12-19T15:31:48.570Z,8.50
2018-12-19T15:34:54.702Z,8.83
2018-12-19T15:38:00.940Z,9.67
2018-12-19T15:41:07.134Z,8.33
2018-12-19T15:44:13.410Z,10.53
2018-12-19T15:47:19.572Z,10.57
2018-12-19T15:50:26.241Z,10.33
2018-12-19T15:53:32.460Z,10.13
2018-12-19T15:56:38.880Z,9.70
2018-12-19T15:59:46.266Z,9.73
2018-12-19T16:02:53.451Z,9.87
2018-12-19T16:05:59.693Z,10.03
2018-12-19T16:09:07.526Z,9.87
2018-12-19T16:12:13.796Z,9.43
2018-12-19T16:15:19.960Z,8.87
2018-12-19T16:18:26.086Z,10.50
2018-12-19T16:21:32.238Z,11.77
2018-12-19T16:24:38.665Z,9.37
2018-12-19T16:27:44.911Z,11.10
2018-12-19T16:30:51.144Z,9.70
2018-12-19T16:33:57.382Z,9.53
2018-12-19T16:37:03.646Z,9.07
2018-12-19T16:40:09.840Z,9.07
2018-12-19T16:43:16.019Z,10.23
2018-12-19T16:46:22.851Z,10.33
2018-12-19T16:49:29.275Z,13.03
2018-12-19T16:52:35.544Z,11.20
2018-12-19T16:55:41.704Z,9.63
2018-12-19T16:58:48.074Z,10.10
2018-12-19T17:01:54.893Z,9.40
2018-12-19T17:05:01.043Z,10.13
2018-12-19T17:08:07.101Z,10.10
2018-12-19T17:11:13.244Z,9.17
2018-12-19T17:14:19.945Z,8.37
2018-12-19T17:17:26.469Z,11.47
2018-12-19T17:20:33.353Z,9.70
2018-12-19T17:23:39.732Z,9.70
2018-12-19T17:26:45.973Z,9.27
2018-12-19T17:29:52.109Z,10.53
2018-12-19T17:32:58.311Z,9.87
2018-12-19T17:36:05.107Z,9.53
2018-12-19T17:39:11.405Z,10.47
2018-12-19T17:42:17.718Z,8.87
2018-12-19T17:45:24.201Z,10.33
2018-12-19T17:48:30.793Z,9.63
2018-12-19T17:51:37.152Z,19.57
2018-12-19T17:54:43.292Z,9.20
2018-12-19T17:57:49.358Z,10.53
2018-12-19T18:00:55.629Z,9.33
2018-12-19T18:04:01.872Z,10.00
2018-12-19T18:07:08.855Z,9.83
2018-12-19T18:10:14.968Z,10.97
2018-12-19T18:13:21.000Z,12.40
2018-12-19T18:16:27.215Z,9.83
2018-12-19T18:19:33.350Z,10.20
2018-12-19T18:22:39.407Z,10.47
2018-12-19T18:25:45.636Z,7.97
2018-12-19T18:28:51.855Z,10.47
2018-12-19T18:31:57.980Z,9.17
2018-12-19T18:35:04.460Z,9.53
2018-12-19T18:38:11.719Z,9.53
2018-12-19T18:41:17.803Z,10.53
2018-12-19T18:44:23.997Z,9.87
2018-12-19T18:47:30.094Z,15.23
2018-12-19T18:50:36.245Z,12.10
2018-12-19T18:53:43.161Z,9.80
2018-12-19T18:56:49.423Z,11.13
2018-12-19T18:59:55.749Z,10.83
2018-12-19T19:03:01.866Z,13.80
2018-12-19T19:06:08.487Z,11.00
2018-12-19T19:09:15.242Z,8.57
2018-12-19T19:12:21.642Z,9.67
2018-12-19T19:15:27.830Z,10.10
2018-12-19T19:18:33.990Z,9.93
2018-12-19T19:21:40.431Z,12.30
2018-12-19T19:24:47.231Z,9.57
2018-12-19T19:27:53.284Z,9.77
2018-12-19T19:30:59.308Z,9.13
2018-12-19T19:34:05.385Z,10.83
2018-12-19T19:37:11.388Z,12.20
2018-12-19T19:40:17.607Z,11.93
2018-12-19T19:43:26.613Z,10.63
2018-12-19T19:46:32.218Z,12.13
2018-12-19T19:49:38.523Z,10.17
2018-12-19T19:52:44.834Z,11.80
2018-12-19T19:55:51.197Z,11.22
2018-12-19T19:58:57.432Z,11.10
2018-12-19T20:02:03.874Z,12.53
2018-12-19T20:05:09.987Z,13.10
2018-12-19T20:08:16.407Z,13.25
2018-12-19T20:11:22.984Z,13.13
2018-12-19T20:14:29.926Z,14.75
2018-12-19T20:17:36.108Z,14.40
2018-12-19T20:20:42.601Z,12.10
2018-12-19T20:23:48.881Z,10.93
2018-12-19T20:26:55.112Z,11.30
2018-12-19T20:30:01.471Z,11.28
2018-12-19T20:33:07.802Z,9.98
2018-12-19T20:36:14.178Z,11.10
2018-12-19T20:39:20.612Z,12.28
2018-12-19T20:42:26.955Z,14.70
2018-12-19T20:45:33.261Z,14.23
2018-12-19T20:48:39.378Z,13.10
2018-12-19T20:51:45.807Z,11.22
2018-12-19T20:54:52.112Z,11.05
2018-12-19T20:57:58.679Z,11.28
2018-12-19T21:01:05.034Z,12.37
2018-12-19T21:04:11.180Z,13.72
2018-12-19T21:07:17.449Z,13.15
2018-12-19T21:10:24.501Z,14.80
2018-12-19T21:13:30.637Z,12.43
2018-12-19T21:16:41.979Z,11.88
2018-12-19T21:19:47.991Z,12.70
2018-12-19T21:22:54.116Z,11.93
2018-12-19T21:26:00.437Z,11.40
2018-12-19T21:29:08.070Z,11.40
2018-12-19T21:32:14.277Z,13.70
2018-12-19T21:35:20.506Z,19.85
2018-12-19T21:38:26.655Z,14.93
2018-12-19T21:41:33.125Z,12.33
2018-12-19T21:44:40.016Z,12.15
2018-12-19T21:47:46.235Z,10.65
2018-12-19T21:50:53.460Z,15.68
2018-12-19T21:53:59.762Z,10.90
2018-12-19T21:57:06.130Z,10.85
2018-12-19T22:00:21.838Z,11.28
2018-12-19T22:03:28.267Z,11.08
2018-12-19T22:06:34.499Z,10.98
2018-12-19T22:09:40.706Z,10.43
2018-12-19T22:12:47.537Z,11.70
2018-12-19T22:15:53.772Z,10.75
2018-12-19T22:19:00.430Z,11.55
2018-12-19T22:22:06.823Z,11.03
2018-12-19T22:25:13.202Z,11.22
2018-12-19T22:28:20.137Z,11.22
2018-12-19T22:31:26.512Z,15.03
2018-12-19T22:34:32.733Z,19.98
2018-12-19T22:37:38.920Z,14.10
2018-12-19T22:40:45.376Z,15.40
2018-12-19T22:43:51.724Z,10.98
2018-12-19T22:46:57.845Z,11.00
2018-12-19T22:50:05.090Z,13.10
2018-12-19T22:53:11.371Z,13.25
2018-12-19T22:56:17.623Z,11.35
2018-12-19T22:59:23.746Z,11.08
2018-12-19T23:02:35.435Z,12.05
2018-12-19T23:05:47.247Z,12.75
2018-12-19T23:08:54.444Z,12.00
2018-12-19T23:12:00.682Z,12.03
2018-12-19T23:15:06.833Z,13.48
2018-12-19T23:18:18.392Z,12.55
2018-12-19T23:21:25.000Z,12.75
2018-12-19T23:24:31.165Z,13.20
2018-12-19T23:27:37.478Z,11.60
2018-12-19T23:30:43.808Z,13.38
2018-12-19T23:33:50.293Z,14.58
2018-12-19T23:36:57.517Z,14.18
2018-12-19T23:40:04.075Z,11.97
2018-12-19T23:43:10.227Z,10.90
2018-12-19T23:46:16.494Z,12.53
2018-12-19T23:49:22.764Z,11.00
2018-12-19T23:52:29.901Z,12.03
2018-12-19T23:55:36.101Z,12.43
2018-12-19T23:58:42.403Z,14.10
